Time;durP1;ratioP1;P1;durP2;ratioP2;P2;SDS_P1;SDS_P2;PMS_P1;PMS_P2;Temp;Humidity;BMP_temperature;BMP_pressure;BME280_temperature;BME280_humidity;BME280_pressure;Samples;Min_cycle;Max_cycle;Signal;HPM_P1;HPM_P2
2022/12/15 00:48:46;;;;;;;;;;;;;;;;;;5017297;28;19925;-96
2022/12/15 00:51:12;;;;;;;;;;;;;;;;;;5002891;28;19925;-96
2022/12/15 01:21:55;;;;;;;;;;;;;;;;;;5034178;28;19929;-95
2022/12/15 01:24:23;;;;;;;;;;;;;;;;;;5030864;28;19925;-96
2022/12/15 01:26:49;;;;;;;;;;;;;;;;;;5016022;28;20012;-96
2022/12/15 01:29:15;;;;;;;;;;;;;;;;;;5000181;28;20022;-96
2022/12/15 01:31:42;;;;;;;;;;;;;;;;;;5015307;28;19921;-96
2022/12/15 01:34:11;;;;;;;;;;;;;;;;;;5000293;28;19928;-95
2022/12/15 01:36:40;;;;;;;;;;;;;;;;;;5000455;28;20050;-95
2022/12/15 01:39:06;;;;;;;;;;;;;;;;;;5000031;28;19921;-96
2022/12/15 01:41:32;;;;;;;;;;;;;;;;;;4999893;28;19925;-95
2022/12/15 01:44:01;;;;;;;;;;;;;;;;;;4999875;28;19925;-96
2022/12/15 01:46:29;;;;;;;;;;;;;;;;;;5000081;28;20325;-95
2022/12/15 01:48:55;;;;;;;;;;;;;;;;;;5000103;28;19928;-96
2022/12/15 01:51:21;;;;;;;;;;;;;;;;;;4999828;28;19921;-96
2022/12/15 01:53:47;;;;;;;;;;;;;;;;;;4999178;28;19921;-96
2022/12/15 01:56:19;;;;;;;;;;;;;;;;;;4999578;28;19921;-96
2022/12/15 01:58:49;;;;;;;;;;;;;;;;;;4999657;28;20384;-94
2022/12/15 02:01:16;;;;;;;;;;;;;;;;;;5016072;28;19928;-95
2022/12/15 02:03:44;;;;;;;;;;;;;;;;;;4999740;28;20023;-95
2022/12/15 02:06:10;;;;;;;;;;;;;;;;;;4999670;28;19921;-95
2022/12/15 02:08:55;;;;;;;;;;;;;;;;;;5018732;28;20280;-95
2022/12/15 02:11:25;;;;;;;;;;;;;;;;;;5015242;28;19928;-94
2022/12/15 02:13:57;;;;;;;;;;;;;;;;;;5000476;28;19922;-95
2022/12/15 02:16:26;;;;;;;;;;;;;;;;;;5017018;28;20008;-95
2022/12/15 02:18:57;;;;;;;;;;;;;;;;;;5000299;28;19964;-95
2022/12/15 02:21:23;;;;;;;;;;;;;;;;;;4999313;28;20158;-94
2022/12/15 02:23:52;;;;;;;;;;;;;;;;;;5015413;28;19928;-95
2022/12/15 02:26:18;;;;;;;;;;;;;;;;;;4999149;28;19932;-95
2022/12/15 02:28:44;;;;;;;;;;;;;;;;;;4999528;28;20417;-96
2022/12/15 02:34:04;;;;;;;;;;;;;;;;;;5015484;28;19921;-93
2022/12/15 02:36:34;;;;;;;;;;;;;;;;;;5015497;28;20012;-93
2022/12/15 02:39:00;;;;;;;;;;;;;;;;;;5015241;28;19928;-94
2022/12/15 02:41:26;;;;;;;;;;;;;;;;;;4999128;28;19921;-95
2022/12/15 02:43:54;;;;;;;;;;;;;;;;;;4999146;28;19929;-95
2022/12/15 02:46:26;;;;;;;;;;;;;;;;;;5015354;28;20016;-94
2022/12/15 02:48:55;;;;;;;;;;;;;;;;;;5015245;28;19922;-95
2022/12/15 02:51:22;;;;;;;;;;;;;;;;;;4999240;28;19922;-94
2022/12/15 02:53:48;;;;;;;;;;;;;;;;;;4998955;28;19921;-94
2022/12/15 02:56:16;;;;;;;;;;;;;;;;;;5015800;28;19988;-94
2022/12/15 03:10:14;;;;;;;;;;;;;;;;;;5249867;23;19925;-94
2022/12/15 03:12:41;;;;;;;;;;;;;;;;;;5016210;28;19929;-94
2022/12/15 03:15:09;;;;;;;;;;;;;;;;;;5000166;28;19969;-96
2022/12/15 03:17:38;;;;;;;;;;;;;;;;;;4984478;28;19945;-96
2022/12/15 03:23:21;;;;;;;;;;;;;;;;;;4985933;28;20444;-96
2022/12/15 03:25:51;;;;;;;;;;;;;;;;;;5003502;28;19976;-96
2022/12/15 03:28:21;;;;;;;;;;;;;;;;;;5019335;28;19939;-96
2022/12/15 03:31:16;;;;;;;;;;;;;;;;;;5025985;28;20387;-96
2022/12/15 03:36:59;;;;;;;;;;;;;;;;;;;;;
2022/12/15 03:39:34;;;;;;;;;;;;;;;;;;;;;
2022/12/15 03:42:46;;;;;;;;;;;;;;;;;;5023602;28;19928;-96
2022/12/15 03:45:07;;;;;;;;;;;;;;;;;;4999155;28;20369;-96
2022/12/15 03:47:43;;;;;;;;;;;;;;;;;;5001840;28;19926;-96
2022/12/15 03:50:19;;;;;;;;;;;;;;;;;;;;;
2022/12/15 03:52:47;;;;;;;;;;;;;;;;;;4994710;28;19929;-96
2022/12/15 03:58:03;;;;;;;;;;;;;;;;;;4997139;28;20103;-96
2022/12/15 04:13:28;;;;;;;;;;;;;;;;;;4970478;28;19927;-96
2022/12/15 04:16:08;;;;;;;;;;;;;;;;;;4958981;29;19926;-96
2022/12/15 04:18:37;;;;;;;;;;;;;;;;;;4959498;28;19932;-96
2022/12/15 04:21:06;;;;;;;;;;;;;;;;;;4956197;29;19973;-95
2022/12/15 04:23:33;;;;;;;;;;;;;;;;;;4956008;29;19933;-96
2022/12/15 05:33:33;;;;;;;;;;;;;;;;;;5189716;23;19933;-96
2022/12/15 05:35:59;;;;;;;;;;;;;;;;;;5000608;28;19921;-96
2022/12/15 05:38:25;;;;;;;;;;;;;;;;;;5000109;28;19921;-96
2022/12/15 05:40:54;;;;;;;;;;;;;;;;;;5000224;28;19971;-96
2022/12/15 05:43:22;;;;;;;;;;;;;;;;;;5000247;28;19925;-96
2022/12/15 05:45:49;;;;;;;;;;;;;;;;;;5015669;28;19964;-96
2022/12/15 05:48:15;;;;;;;;;;;;;;;;;;5000444;28;19928;-96
2022/12/15 05:50:41;;;;;;;;;;;;;;;;;;4999847;28;20393;-96
2022/12/15 05:53:07;;;;;;;;;;;;;;;;;;4999875;28;19921;-96
2022/12/15 05:55:33;;;;;;;;;;;;;;;;;;4999767;28;19922;-96
2022/12/15 05:57:59;;;;;;;;;;;;;;;;;;4999805;28;19945;-96
2022/12/15 06:00:27;;;;;;;;;;;;;;;;;;4999747;28;20020;-96
2022/12/15 06:02:56;;;;;;;;;;;;;;;;;;5000356;28;20059;-96
2022/12/15 06:05:25;;;;;;;;;;;;;;;;;;4999400;28;19956;-95
2022/12/15 06:07:51;;;;;;;;;;;;;;;;;;4999875;28;19921;-96
2022/12/15 06:10:17;;;;;;;;;;;;;;;;;;5000510;28;19921;-96
2022/12/15 06:12:48;;;;;;;;;;;;;;;;;;5015718;28;19981;-96
2022/12/15 06:15:20;;;;;;;;;;;;;;;;;;5000068;28;19921;-96
2022/12/15 06:17:47;;;;;;;;;;;;;;;;;;5000458;28;19971;-96
2022/12/15 06:20:16;;;;;;;;;;;;;;;;;;4999203;28;19925;-96
2022/12/15 06:22:42;;;;;;;;;;;;;;;;;;4999541;28;19979;-95
2022/12/15 06:25:08;;;;;;;;;;;;;;;;;;4999427;28;19975;-96
2022/12/15 06:27:36;;;;;;;;;;;;;;;;;;4999546;28;19925;-96
2022/12/15 06:30:02;;;;;;;;;;;;;;;;;;4999355;28;19921;-96
2022/12/15 06:32:28;;;;;;;;;;;;;;;;;;4999838;28;19952;-95
2022/12/15 06:34:57;;;;;;;;;;;;;;;;;;4999556;28;19925;-96
2022/12/15 06:37:33;;;;;;;;;;;;;;;;;;5015236;28;20016;-96
2022/12/15 06:46:06;;;;;;;;;;;;;;;;;;5048312;28;19921;-95
2022/12/15 06:48:34;;;;;;;;;;;;;;;;;;5010265;28;19936;-96
2022/12/15 06:51:00;;;;;;;;;;;;;;;;;;5005011;28;19921;-96
2022/12/15 06:53:26;;;;;;;;;;;;;;;;;;5008633;28;20008;-96
2022/12/15 06:55:55;;;;;;;;;;;;;;;;;;5010735;28;19921;-93
2022/12/15 06:58:23;;;;;;;;;;;;;;;;;;5021788;28;19921;-91
2022/12/15 07:00:49;;;;;;;;;;;;;;;;;;5006191;28;20430;-93
2022/12/15 07:03:15;;;;;;;;;;;;;;;;;;5003082;28;19986;-95
2022/12/15 07:05:42;;;;;;;;;;;;;;;;;;5002909;28;19921;-94
2022/12/15 07:08:10;;;;;;;;;;;;;;;;;;5002915;28;19921;-93
2022/12/15 07:10:36;;;;;;;;;;;;;;;;;;5018884;28;19921;-95
2022/12/15 07:13:02;;;;;;;;;;;;;;;;;;5003202;28;20225;-94
2022/12/15 07:15:28;;;;;;;;;;;;;;;;;;5003047;28;19929;-95
2022/12/15 07:17:57;;;;;;;;;;;;;;;;;;5003249;28;19925;-95
2022/12/15 07:20:24;;;;;;;;;;;;;;;;;;5002235;28;19925;-95
2022/12/15 07:22:53;;;;;;;;;;;;;;;;;;5002927;28;19921;-94
2022/12/15 07:25:19;;;;;;;;;;;;;;;;;;5018389;28;19921;-94
2022/12/15 07:27:51;;;;;;;;;;;;;;;;;;5003238;28;19921;-95
2022/12/15 07:30:19;;;;;;;;;;;;;;;;;;5017960;28;19967;-94
2022/12/15 07:32:45;;;;;;;;;;;;;;;;;;5002143;28;19929;-95
2022/12/15 07:35:11;;;;;;;;;;;;;;;;;;5001835;28;19932;-96
2022/12/15 07:37:37;;;;;;;;;;;;;;;;;;4997669;28;19921;-95
2022/12/15 07:40:03;;;;;;;;;;;;;;;;;;4981495;28;19925;-96
2022/12/15 07:42:29;;;;;;;;;;;;;;;;;;4982423;28;19921;-95
2022/12/15 07:44:55;;;;;;;;;;;;;;;;;;4982791;28;19928;-96
2022/12/15 07:47:21;;;;;;;;;;;;;;;;;;4982927;28;20368;-95
2022/12/15 07:49:47;;;;;;;;;;;;;;;;;;4998812;28;19928;-95
2022/12/15 07:52:13;;;;;;;;;;;;;;;;;;4998104;28;19925;-95
2022/12/15 07:54:39;;;;;;;;;;;;;;;;;;4998797;28;19947;-95
2022/12/15 07:57:06;;;;;;;;;;;;;;;;;;4999086;28;19926;-95
2022/12/15 07:59:33;;;;;;;;;;;;;;;;;;4998755;28;19972;-94
2022/12/15 08:02:03;;;;;;;;;;;;;;;;;;4998234;28;19965;-94
2022/12/15 08:04:30;;;;;;;;;;;;;;;;;;4998040;28;19929;-94
2022/12/15 08:06:56;;;;;;;;;;;;;;;;;;4998291;28;19945;-94
2022/12/15 08:09:26;;;;;;;;;;;;;;;;;;5015677;28;19925;-94
2022/12/15 08:11:53;;;;;;;;;;;;;;;;;;5664703;23;20243;-96
2022/12/15 08:14:23;;;;;;;;;;;;;;;;;;5020979;28;19926;-93
2022/12/15 08:16:49;;;;;;;;;;;;;;;;;;5003867;28;20023;-92
2022/12/15 08:19:16;;;;;;;;;;;;;;;;;;5006281;28;20410;-94
2022/12/15 08:21:44;;;;;;;;;;;;;;;;;;5018545;28;19928;-96
2022/12/15 08:24:13;;;;;;;;;;;;;;;;;;5002663;28;19933;-96
2022/12/15 08:26:39;;;;;;;;;;;;;;;;;;5017350;28;20398;-95
2022/12/15 08:29:05;;;;;;;;;;;;;;;;;;5000987;28;19921;-94
2022/12/15 08:31:33;;;;;;;;;;;;;;;;;;5017644;28;19964;-94
2022/12/15 08:34:08;;;;;;;;;;;;;;;;;;5017240;28;19925;-94
2022/12/15 08:36:39;;;;;;;;;;;;;;;;;;5017389;28;19921;-93
2022/12/15 08:39:05;;;;;;;;;;;;;;;;;;5016606;28;19921;-94
2022/12/15 08:41:32;;;;;;;;;;;;;;;;;;5016681;28;19928;-93
2022/12/15 08:44:01;;;;;;;;;;;;;;;;;;5033955;28;20008;-94
2022/12/15 08:46:36;;;;;;;;;;;;;;;;;;5018670;28;19928;-94
2022/12/15 08:49:02;;;;;;;;;;;;;;;;;;5000796;28;19921;-94
2022/12/15 08:51:29;;;;;;;;;;;;;;;;;;5016779;28;20100;-95
2022/12/15 08:53:58;;;;;;;;;;;;;;;;;;5001219;28;19964;-96
2022/12/15 08:56:25;;;;;;;;;;;;;;;;;;5001471;28;20392;-93
2022/12/15 08:58:52;;;;;;;;;;;;;;;;;;5017264;28;19992;-93
2022/12/15 09:01:18;;;;;;;;;;;;;;;;;;5000776;28;20380;-93
2022/12/15 09:03:44;;;;;;;;;;;;;;;;;;4999410;28;20026;-94
2022/12/15 09:06:09;;;;;;;;;;;;;;;;;;5000950;28;19925;-93
2022/12/15 09:08:36;;;;;;;;;;;;;;;;;;5000067;28;19921;-92
2022/12/15 09:13:38;;;;;;;;;;;;;;;;;;5647005;23;19986;-93
2022/12/15 09:16:07;;;;;;;;;;;;;;;;;;5001136;28;19928;-94
2022/12/15 09:18:33;;;;;;;;;;;;;;;;;;5000705;28;19952;-95
2022/12/15 09:20:59;;;;;;;;;;;;;;;;;;5000248;28;20458;-95
2022/12/15 09:23:25;;;;;;;;;;;;;;;;;;5000768;28;19928;-95
2022/12/15 09:25:51;;;;;;;;;;;;;;;;;;5000373;28;20305;-94
2022/12/15 09:28:17;;;;;;;;;;;;;;;;;;5000425;28;20269;-95
2022/12/15 09:30:43;;;;;;;;;;;;;;;;;;5000129;28;19921;-94
2022/12/15 09:33:09;;;;;;;;;;;;;;;;;;5000014;28;19921;-95
2022/12/15 09:35:35;;;;;;;;;;;;;;;;;;4999858;28;19921;-95
2022/12/15 09:38:01;;;;;;;;;;;;;;;;;;5000160;28;19921;-95
2022/12/15 09:40:27;;;;;;;;;;;;;;;;;;4999925;28;19925;-94
2022/12/15 09:42:57;;;;;;;;;;;;;;;;;;5000464;28;19909;-95
2022/12/15 09:45:23;;;;;;;;;;;;;;;;;;5000347;28;19925;-94
2022/12/15 09:47:49;;;;;;;;;;;;;;;;;;4999707;28;20374;-95
2022/12/15 09:50:15;;;;;;;;;;;;;;;;;;4999661;28;19921;-95
2022/12/15 09:52:41;;;;;;;;;;;;;;;;;;4999477;28;19928;-95
2022/12/15 09:55:07;;;;;;;;;;;;;;;;;;4999987;28;19920;-95
2022/12/15 09:57:33;;;;;;;;;;;;;;;;;;4999616;28;20016;-94
2022/12/15 09:59:59;;;;;;;;;;;;;;;;;;4999971;28;19925;-95
2022/12/15 10:02:25;;;;;;;;;;;;;;;;;;5000121;28;19921;-93
2022/12/15 10:04:51;;;;;;;;;;;;;;;;;;4999966;28;19943;-90
2022/12/15 10:07:17;;;;;;;;;;;;;;;;;;5015082;28;19921;-91
2022/12/15 10:09:43;;;;;;;;;;;;;;;;;;4998470;28;19927;-90
2022/12/15 10:12:09;;;;;;;;;;;;;;;;;;4998905;28;19943;-91
2022/12/15 10:14:35;;;;;;;;;;;;;;;;;;4999436;28;19925;-92
2022/12/15 10:17:01;;;;;;;;;;;;;;;;;;5004011;28;19921;-92
2022/12/15 10:19:27;;;;;;;;;;;;;;;;;;5003181;28;20372;-94
2022/12/15 10:21:56;;;;;;;;;;;;;;;;;;5003314;28;19929;-93
2022/12/15 10:24:22;;;;;;;;;;;;;;;;;;5002976;28;19936;-93
2022/12/15 10:26:48;;;;;;;;;;;;;;;;;;5003271;28;19920;-93
2022/12/15 10:29:23;;;;;;;;;;;;;;;;;;5020555;28;19928;-93
2022/12/15 10:31:52;;;;;;;;;;;;;;;;;;5019030;28;19944;-94
2022/12/15 10:34:21;;;;;;;;;;;;;;;;;;5020324;28;19921;-88
2022/12/15 10:36:48;;;;;;;;;;;;;;;;;;5003387;28;20490;-93
2022/12/15 10:39:14;;;;;;;;;;;;;;;;;;5003623;28;20272;-93
2022/12/15 10:41:41;;;;;;;;;;;;;;;;;;5002457;28;19932;-94
2022/12/15 10:44:10;;;;;;;;;;;;;;;;;;5003013;28;19975;-93
2022/12/15 10:46:36;;;;;;;;;;;;;;;;;;5002986;28;19921;-93
2022/12/15 10:49:03;;;;;;;;;;;;;;;;;;5019239;28;19921;-93
2022/12/15 10:51:30;;;;;;;;;;;;;;;;;;5002228;28;19921;-92
2022/12/15 10:53:59;;;;;;;;;;;;;;;;;;5002767;28;19925;-92
2022/12/15 10:56:25;;;;;;;;;;;;;;;;;;5003222;28;20426;-93
2022/12/15 10:58:52;;;;;;;;;;;;;;;;;;5002959;28;19925;-93
2022/12/15 11:01:18;;;;;;;;;;;;;;;;;;5002549;28;19936;-93
2022/12/15 11:03:50;;;;;;;;;;;;;;;;;;5003036;28;20008;-93
2022/12/15 11:06:16;;;;;;;;;;;;;;;;;;5004199;28;20055;-93
2022/12/15 11:08:43;;;;;;;;;;;;;;;;;;5033445;28;19964;-93
2022/12/15 11:14:00;;;;;;;;;;;;;;;;;;5034861;28;19943;-96
2022/12/15 11:19:03;;;;;;;;;;;;;;;;;;5173726;23;19925;-93
2022/12/15 11:21:30;;;;;;;;;;;;;;;;;;5004101;28;19929;-93
2022/12/15 11:23:56;;;;;;;;;;;;;;;;;;5018453;28;19928;-93
2022/12/15 11:26:31;;;;;;;;;;;;;;;;;;5017512;28;19921;-93
2022/12/15 11:28:57;;;;;;;;;;;;;;;;;;5018334;28;20020;-94
2022/12/15 11:31:26;;;;;;;;;;;;;;;;;;5019278;28;19925;-92
2022/12/15 11:33:54;;;;;;;;;;;;;;;;;;5019655;28;19921;-92
2022/12/15 11:36:20;;;;;;;;;;;;;;;;;;5020339;28;20437;-92
2022/12/15 11:38:47;;;;;;;;;;;;;;;;;;5018134;28;19929;-92
2022/12/15 11:41:14;;;;;;;;;;;;;;;;;;5018275;28;20380;-93
2022/12/15 11:43:40;;;;;;;;;;;;;;;;;;5018072;28;20319;-92
2022/12/15 11:46:07;;;;;;;;;;;;;;;;;;5017820;28;19922;-90
2022/12/15 11:48:34;;;;;;;;;;;;;;;;;;5018157;28;20004;-94
2022/12/15 11:51:00;;;;;;;;;;;;;;;;;;5017303;28;19921;-91
2022/12/15 11:53:26;;;;;;;;;;;;;;;;;;5017628;28;19932;-94
2022/12/15 11:58:25;;;;;;;;;;;;;;;;;;5032526;28;20276;-87
2022/12/15 12:00:51;;;;;;;;;;;;;;;;;;5016552;28;19925;-87
2022/12/15 12:03:17;;;;;;;;;;;;;;;;;;5016808;28;19928;-86
2022/12/15 12:05:43;;;;;;;;;;;;;;;;;;5016860;28;19921;-86
2022/12/15 12:08:09;;;;;;;;;;;;;;;;;;5000490;28;19971;-87
2022/12/15 12:10:35;;;;;;;;;;;;;;;;;;5016665;28;20012;-88
2022/12/15 12:13:01;;;;;;;;;;;;;;;;;;5016755;28;19947;-86
2022/12/15 12:15:27;;;;;;;;;;;;;;;;;;5000586;28;19929;-91
2022/12/15 12:17:52;;;;;;;;;;;;;;;;;;5003263;28;19921;-91
2022/12/15 12:20:19;;;;;;;;;;;;;;;;;;5002412;28;19979;-91
2022/12/15 12:22:44;;;;;;;;;;;;;;;;;;5016568;28;19928;-92
2022/12/15 12:25:11;;;;;;;;;;;;;;;;;;5016895;28;19929;-93
2022/12/15 12:27:40;;;;;;;;;;;;;;;;;;5000867;28;19974;-92
2022/12/15 12:30:08;;;;;;;;;;;;;;;;;;5017197;28;20415;-94
2022/12/15 12:32:34;;;;;;;;;;;;;;;;;;5508522;23;19924;-93
2022/12/15 12:35:00;;;;;;;;;;;;;;;;;;4999715;28;20455;-92
2022/12/15 12:37:27;;;;;;;;;;;;;;;;;;5016632;28;20031;-92
2022/12/15 12:39:53;;;;;;;;;;;;;;;;;;5000543;28;20276;-89
2022/12/15 12:42:20;;;;;;;;;;;;;;;;;;4999932;28;19921;-91
2022/12/15 12:44:46;;;;;;;;;;;;;;;;;;5000335;28;20016;-91
2022/12/15 12:47:15;;;;;;;;;;;;;;;;;;5000346;28;19976;-92
2022/12/15 12:49:41;;;;;;;;;;;;;;;;;;5000178;28;19921;-92
2022/12/15 12:52:07;;;;;;;;;;;;;;;;;;5000566;28;19921;-94
2022/12/15 12:54:38;;;;;;;;;;;;;;;;;;5016410;28;19925;-90
2022/12/15 12:57:30;;;;;;;;;;;;;;;;;;5437853;23;20020;-91
2022/12/15 12:59:56;;;;;;;;;;;;;;;;;;4980123;28;20064;-90
2022/12/15 13:02:24;;;;;;;;;;;;;;;;;;4980088;28;19991;-91
2022/12/15 13:04:50;;;;;;;;;;;;;;;;;;4979881;28;19921;-90
2022/12/15 13:07:18;;;;;;;;;;;;;;;;;;4980325;28;19928;-90
2022/12/15 13:09:44;;;;;;;;;;;;;;;;;;4980153;28;19984;-94
2022/12/15 13:12:13;;;;;;;;;;;;;;;;;;4996421;28;19928;-90
2022/12/15 13:14:43;;;;;;;;;;;;;;;;;;4996832;28;19925;-91
2022/12/15 13:17:09;;;;;;;;;;;;;;;;;;4979938;28;19922;-91
2022/12/15 13:19:36;;;;;;;;;;;;;;;;;;4996782;28;19932;-91
2022/12/15 13:22:02;;;;;;;;;;;;;;;;;;4979702;28;19937;-88
2022/12/15 13:24:28;;;;;;;;;;;;;;;;;;4995794;28;20280;-87
2022/12/15 13:26:56;;;;;;;;;;;;;;;;;;4979825;28;19921;-93
2022/12/15 13:29:22;;;;;;;;;;;;;;;;;;4979634;28;19979;-88
2022/12/15 13:31:48;;;;;;;;;;;;;;;;;;4979448;28;19922;-87
2022/12/15 13:34:14;;;;;;;;;;;;;;;;;;4979151;28;19983;-87
2022/12/15 13:36:42;;;;;;;;;;;;;;;;;;4995004;28;21459;-87
2022/12/15 13:39:08;;;;;;;;;;;;;;;;;;4979246;28;20292;-88
2022/12/15 13:41:34;;;;;;;;;;;;;;;;;;4979013;28;19975;-87
2022/12/15 13:44:00;;;;;;;;;;;;;;;;;;4995422;28;19925;-87
2022/12/15 13:46:26;;;;;;;;;;;;;;;;;;4978918;28;19976;-87
2022/12/15 13:48:52;;;;;;;;;;;;;;;;;;4979211;28;19980;-92
2022/12/15 13:51:19;;;;;;;;;;;;;;;;;;5088273;23;19959;-91
2022/12/15 13:53:45;;;;;;;;;;;;;;;;;;4999229;28;19928;-92
2022/12/15 13:56:11;;;;;;;;;;;;;;;;;;4998492;28;19921;-92
2022/12/15 13:58:38;;;;;;;;;;;;;;;;;;4999317;28;19928;-92
2022/12/15 14:01:04;;;;;;;;;;;;;;;;;;5015636;28;19929;-90
2022/12/15 14:03:29;;;;;;;;;;;;;;;;;;4999460;28;19922;-94
2022/12/15 14:06:00;;;;;;;;;;;;;;;;;;5000294;28;19921;-89
2022/12/15 14:08:26;;;;;;;;;;;;;;;;;;4997662;28;19928;-89
2022/12/15 14:10:51;;;;;;;;;;;;;;;;;;4998040;28;19921;-91
2022/12/15 14:13:17;;;;;;;;;;;;;;;;;;4998284;28;19921;-89
2022/12/15 14:15:43;;;;;;;;;;;;;;;;;;4997807;28;19994;-88
2022/12/15 14:18:09;;;;;;;;;;;;;;;;;;4998322;28;19967;-87
2022/12/15 14:20:35;;;;;;;;;;;;;;;;;;4997629;28;19925;-87
2022/12/15 14:23:01;;;;;;;;;;;;;;;;;;4998213;28;19921;-90
2022/12/15 14:25:28;;;;;;;;;;;;;;;;;;4997935;28;20249;-89
2022/12/15 14:27:54;;;;;;;;;;;;;;;;;;4998020;28;20016;-90
2022/12/15 14:30:21;;;;;;;;;;;;;;;;;;5014245;28;20332;-90
2022/12/15 14:32:47;;;;;;;;;;;;;;;;;;5014275;28;19975;-90
2022/12/15 14:35:13;;;;;;;;;;;;;;;;;;4997987;28;19961;-90
2022/12/15 14:37:39;;;;;;;;;;;;;;;;;;4998025;28;19921;-88
2022/12/15 14:40:05;;;;;;;;;;;;;;;;;;5014728;28;19948;-89
2022/12/15 14:42:31;;;;;;;;;;;;;;;;;;4997980;28;19932;-90
2022/12/15 14:44:57;;;;;;;;;;;;;;;;;;4997675;28;19925;-89
2022/12/15 14:47:33;;;;;;;;;;;;;;;;;;5016534;28;19927;-96
2022/12/15 14:50:02;;;;;;;;;;;;;;;;;;4999217;28;19925;-91
2022/12/15 14:52:28;;;;;;;;;;;;;;;;;;4997653;28;19987;-91
2022/12/15 14:57:28;;;;;;;;;;;;;;;;;;5010349;28;19979;-95
2022/12/15 14:59:54;;;;;;;;;;;;;;;;;;4978897;28;19921;-92
2022/12/15 15:02:21;;;;;;;;;;;;;;;;;;4980793;28;19925;-92
2022/12/15 15:04:47;;;;;;;;;;;;;;;;;;4983131;28;19921;-91
2022/12/15 15:07:13;;;;;;;;;;;;;;;;;;4979394;28;20311;-92
2022/12/15 15:09:39;;;;;;;;;;;;;;;;;;4963111;28;20289;-91
2022/12/15 15:12:06;;;;;;;;;;;;;;;;;;4962743;28;19932;-90
2022/12/15 15:14:32;;;;;;;;;;;;;;;;;;4971802;28;20229;-92
2022/12/15 15:16:58;;;;;;;;;;;;;;;;;;4983516;28;20088;-93
2022/12/15 15:19:24;;;;;;;;;;;;;;;;;;4982924;28;19921;-92
2022/12/15 15:21:51;;;;;;;;;;;;;;;;;;4983706;28;19929;-92
2022/12/15 15:24:17;;;;;;;;;;;;;;;;;;4983334;28;19984;-90
2022/12/15 15:30:03;;;;;;;;;;;;;;;;;;4988232;28;19921;-96
2022/12/15 15:32:29;;;;;;;;;;;;;;;;;;4962164;28;19961;-92
2022/12/15 15:34:55;;;;;;;;;;;;;;;;;;5001177;28;19922;-92
2022/12/15 15:37:21;;;;;;;;;;;;;;;;;;5006640;28;19937;-93
2022/12/15 15:39:47;;;;;;;;;;;;;;;;;;5009489;28;20406;-92
2022/12/15 15:42:13;;;;;;;;;;;;;;;;;;4982368;28;20012;-92
2022/12/15 15:44:40;;;;;;;;;;;;;;;;;;4982102;28;19921;-93
2022/12/15 15:47:06;;;;;;;;;;;;;;;;;;4982974;28;19922;-93
2022/12/15 15:49:32;;;;;;;;;;;;;;;;;;4982278;28;20307;-93
2022/12/15 15:52:04;;;;;;;;;;;;;;;;;;4999291;28;19921;-94
2022/12/15 15:54:34;;;;;;;;;;;;;;;;;;4999135;28;19921;-92
2022/12/15 15:57:01;;;;;;;;;;;;;;;;;;4981311;28;19936;-92
2022/12/15 15:59:27;;;;;;;;;;;;;;;;;;4997719;28;20292;-92
2022/12/15 16:01:54;;;;;;;;;;;;;;;;;;4982172;28;19984;-92
2022/12/15 16:04:20;;;;;;;;;;;;;;;;;;4981575;28;19967;-92
2022/12/15 16:06:46;;;;;;;;;;;;;;;;;;4981118;28;19925;-91
2022/12/15 16:09:12;;;;;;;;;;;;;;;;;;4981641;28;19973;-91
2022/12/15 16:11:38;;;;;;;;;;;;;;;;;;4981797;28;19922;-92
2022/12/15 16:14:04;;;;;;;;;;;;;;;;;;4996981;28;19928;-91
2022/12/15 16:16:30;;;;;;;;;;;;;;;;;;4981062;28;20016;-90
2022/12/15 16:18:56;;;;;;;;;;;;;;;;;;4981042;28;19921;-94
2022/12/15 16:21:22;;;;;;;;;;;;;;;;;;4996897;28;19932;-91
2022/12/15 16:23:48;;;;;;;;;;;;;;;;;;4980955;28;19921;-89
2022/12/15 16:26:14;;;;;;;;;;;;;;;;;;4980961;28;19983;-90
2022/12/15 16:28:40;;;;;;;;;;;;;;;;;;4997106;28;20012;-89
2022/12/15 16:31:06;;;;;;;;;;;;;;;;;;4980544;28;19973;-89
2022/12/15 16:33:32;;;;;;;;;;;;;;;;;;4996910;28;20011;-89
2022/12/15 16:35:58;;;;;;;;;;;;;;;;;;4980362;28;20451;-88
2022/12/15 16:38:24;;;;;;;;;;;;;;;;;;4996746;28;19932;-88
2022/12/15 16:40:50;;;;;;;;;;;;;;;;;;4980085;28;19930;-88
2022/12/15 16:43:16;;;;;;;;;;;;;;;;;;4980165;28;19979;-88
2022/12/15 16:45:42;;;;;;;;;;;;;;;;;;4979957;28;20377;-89
2022/12/15 16:48:08;;;;;;;;;;;;;;;;;;4996663;28;20391;-89
2022/12/15 16:50:34;;;;;;;;;;;;;;;;;;4980034;28;19921;-89
2022/12/15 16:53:00;;;;;;;;;;;;;;;;;;4982258;28;19925;-89
2022/12/15 16:55:26;;;;;;;;;;;;;;;;;;4980138;28;19926;-90
2022/12/15 16:57:52;;;;;;;;;;;;;;;;;;4996516;28;20275;-88
2022/12/15 17:00:18;;;;;;;;;;;;;;;;;;4995819;28;19925;-91
2022/12/15 17:02:44;;;;;;;;;;;;;;;;;;4979669;28;20364;-90
2022/12/15 17:05:10;;;;;;;;;;;;;;;;;;4980112;28;19925;-88
2022/12/15 17:07:37;;;;;;;;;;;;;;;;;;4979751;28;19925;-89
2022/12/15 17:10:03;;;;;;;;;;;;;;;;;;4979705;28;20015;-88
2022/12/15 17:12:29;;;;;;;;;;;;;;;;;;4979476;28;19928;-89
2022/12/15 17:14:56;;;;;;;;;;;;;;;;;;4995499;28;19922;-92
2022/12/15 17:17:22;;;;;;;;;;;;;;;;;;4979292;28;19929;-88
2022/12/15 17:19:49;;;;;;;;;;;;;;;;;;4979244;28;19921;-88
2022/12/15 17:22:15;;;;;;;;;;;;;;;;;;4979174;28;20387;-88
2022/12/15 17:24:41;;;;;;;;;;;;;;;;;;4994968;28;19921;-90
2022/12/15 17:27:06;;;;;;;;;;;;;;;;;;4979151;28;19922;-90
2022/12/15 17:29:32;;;;;;;;;;;;;;;;;;4979174;28;20027;-90
2022/12/15 17:31:58;;;;;;;;;;;;;;;;;;4978998;28;19921;-88
2022/12/15 17:34:24;;;;;;;;;;;;;;;;;;4979044;28;19928;-88
2022/12/15 17:36:50;;;;;;;;;;;;;;;;;;4979168;28;19948;-88
2022/12/15 17:39:16;;;;;;;;;;;;;;;;;;4995189;28;19928;-89
2022/12/15 17:41:42;;;;;;;;;;;;;;;;;;4979068;28;19926;-88
2022/12/15 17:44:08;;;;;;;;;;;;;;;;;;4978950;28;19932;-88
2022/12/15 17:46:34;;;;;;;;;;;;;;;;;;4979187;28;19988;-89
2022/12/15 17:49:00;;;;;;;;;;;;;;;;;;4995338;28;19971;-89
2022/12/15 17:51:25;;;;;;;;;;;;;;;;;;4979046;28;19967;-89
2022/12/15 17:53:51;;;;;;;;;;;;;;;;;;4995210;28;19983;-89
2022/12/15 17:56:17;;;;;;;;;;;;;;;;;;4994811;28;19925;-87
2022/12/15 17:58:43;;;;;;;;;;;;;;;;;;4995079;28;19926;-87
2022/12/15 18:04:01;;;;;;;;;;;;;;;;;;5306781;23;20366;-92
2022/12/15 18:06:26;;;;;;;;;;;;;;;;;;4979457;28;19964;-92
2022/12/15 18:08:52;;;;;;;;;;;;;;;;;;4979372;28;20320;-91
2022/12/15 18:11:18;;;;;;;;;;;;;;;;;;4979223;28;19921;-92
2022/12/15 18:13:44;;;;;;;;;;;;;;;;;;4979747;28;19925;-91
2022/12/15 18:16:10;;;;;;;;;;;;;;;;;;4979129;28;19921;-91
2022/12/15 18:18:46;;;;;;;;;;;;;;;;;;;;;
2022/12/15 18:21:30;;;;;;;;;;;;;;;;;;5678728;23;19929;-92
2022/12/15 18:23:56;;;;;;;;;;;;;;;;;;4998853;28;19921;-93
2022/12/15 18:26:22;;;;;;;;;;;;;;;;;;4998590;28;20007;-93
2022/12/15 18:28:48;;;;;;;;;;;;;;;;;;5000401;28;20261;-88
2022/12/15 18:31:14;;;;;;;;;;;;;;;;;;4998732;28;19936;-90
2022/12/15 18:33:40;;;;;;;;;;;;;;;;;;4998539;28;20363;-88
2022/12/15 18:36:06;;;;;;;;;;;;;;;;;;5015300;28;19928;-86
2022/12/15 18:38:32;;;;;;;;;;;;;;;;;;5018257;28;19925;-89
2022/12/15 18:40:58;;;;;;;;;;;;;;;;;;5001723;28;19936;-89
2022/12/15 18:43:23;;;;;;;;;;;;;;;;;;5001786;28;19967;-90
2022/12/15 18:45:49;;;;;;;;;;;;;;;;;;5001537;28;19925;-88
2022/12/15 18:48:15;;;;;;;;;;;;;;;;;;5018166;28;20402;-86
2022/12/15 18:50:41;;;;;;;;;;;;;;;;;;5001345;28;19925;-86
2022/12/15 18:53:07;;;;;;;;;;;;;;;;;;5017947;28;19921;-87
2022/12/15 18:55:33;;;;;;;;;;;;;;;;;;5018060;28;19940;-87
2022/12/15 18:58:00;;;;;;;;;;;;;;;;;;5001721;28;19921;-86
2022/12/15 19:00:26;;;;;;;;;;;;;;;;;;5017885;28;20253;-87
2022/12/15 19:02:52;;;;;;;;;;;;;;;;;;5017830;28;19925;-87
2022/12/15 19:05:27;;;;;;;;;;;;;;;;;;5017946;28;20019;-88
2022/12/15 19:07:53;;;;;;;;;;;;;;;;;;5001401;28;19927;-90
2022/12/15 19:10:19;;;;;;;;;;;;;;;;;;5017723;28;20008;-91
2022/12/15 19:12:45;;;;;;;;;;;;;;;;;;5001686;28;19925;-90
2022/12/15 19:15:12;;;;;;;;;;;;;;;;;;5001646;28;20176;-93
2022/12/15 19:23:11;;;;;;;;;;;;;;;;;;5018897;28;20429;-95
2022/12/15 19:25:40;;;;;;;;;;;;;;;;;;4998098;28;19967;-90
2022/12/15 19:28:05;;;;;;;;;;;;;;;;;;4981372;28;19925;-92
2022/12/15 19:30:32;;;;;;;;;;;;;;;;;;5000905;28;19940;-93
2022/12/15 19:32:57;;;;;;;;;;;;;;;;;;5001302;28;19944;-93
2022/12/15 19:35:23;;;;;;;;;;;;;;;;;;5001079;28;20372;-93
2022/12/15 19:37:49;;;;;;;;;;;;;;;;;;5001205;28;19921;-93
2022/12/15 19:40:16;;;;;;;;;;;;;;;;;;5001609;28;19927;-93
2022/12/15 19:42:43;;;;;;;;;;;;;;;;;;5001223;28;19929;-93
2022/12/15 19:45:12;;;;;;;;;;;;;;;;;;5017624;28;19921;-92
2022/12/15 19:47:39;;;;;;;;;;;;;;;;;;5001666;28;20356;-90
2022/12/15 19:50:05;;;;;;;;;;;;;;;;;;5001495;28;19921;-92
2022/12/15 19:52:30;;;;;;;;;;;;;;;;;;5000444;28;19928;-91
2022/12/15 19:54:58;;;;;;;;;;;;;;;;;;5000768;28;19979;-92
2022/12/15 19:57:24;;;;;;;;;;;;;;;;;;5001104;28;19944;-94
2022/12/15 19:59:50;;;;;;;;;;;;;;;;;;5001042;28;19921;-93
2022/12/15 20:02:21;;;;;;;;;;;;;;;;;;5001212;28;20261;-93
2022/12/15 20:04:48;;;;;;;;;;;;;;;;;;5017392;28;20380;-93
2022/12/15 20:07:17;;;;;;;;;;;;;;;;;;5001083;28;20330;-93
2022/12/15 20:09:43;;;;;;;;;;;;;;;;;;5016653;28;19921;-92
2022/12/15 20:12:12;;;;;;;;;;;;;;;;;;5001067;28;19924;-92
2022/12/15 20:14:38;;;;;;;;;;;;;;;;;;5000625;28;20388;-91
2022/12/15 20:17:03;;;;;;;;;;;;;;;;;;5000542;28;20261;-93
2022/12/15 20:19:29;;;;;;;;;;;;;;;;;;5000369;28;19948;-92